createdAt,value
2017-11-21T00:00:56.792Z,0
2017-11-21T00:02:07.115Z,0
2017-11-21T00:03:17.161Z,0
2017-11-21T00:04:27.156Z,0
2017-11-21T00:05:37.062Z,0
2017-11-21T00:06:47.125Z,0
2017-11-21T00:07:57.163Z,0
2017-11-21T00:09:07.465Z,0
2017-11-21T00:10:17.762Z,0
2017-11-21T00:11:28.103Z,0
2017-11-21T00:12:38.389Z,0
2017-11-21T00:13:48.387Z,0
2017-11-21T00:14:58.756Z,0
2017-11-21T00:16:09.091Z,0
2017-11-21T00:17:19.089Z,0
2017-11-21T00:18:29.396Z,0
2017-11-21T00:19:39.686Z,0
2017-11-21T00:20:49.986Z,0
2017-11-21T00:22:00.137Z,0
2017-11-21T00:23:10.035Z,0
2017-11-21T00:24:20.465Z,0
2017-11-21T00:25:30.774Z,0
2017-11-21T00:26:41.044Z,0
2017-11-21T00:27:51.093Z,0
2017-11-21T00:29:01.531Z,0
2017-11-21T00:30:11.633Z,0
2017-11-21T00:31:21.898Z,0
2017-11-21T00:32:32.160Z,0
2017-11-21T00:33:42.317Z,0
2017-11-21T00:34:52.566Z,0
2017-11-21T00:36:02.342Z,0
2017-11-21T00:37:11.983Z,0
2017-11-21T00:38:22.342Z,0
2017-11-21T00:39:32.090Z,0
2017-11-21T00:40:42.344Z,0
2017-11-21T00:41:52.656Z,0
2017-11-21T00:43:02.969Z,0
2017-11-21T00:44:12.984Z,0
2017-11-21T00:45:23.255Z,0
2017-11-21T00:46:33.252Z,0
2017-11-21T00:47:43.516Z,0
2017-11-21T00:48:53.859Z,0
2017-11-21T00:50:03.870Z,0
2017-11-21T00:51:13.836Z,0
2017-11-21T00:52:24.128Z,0
2017-11-21T00:53:34.153Z,0
2017-11-21T00:54:44.406Z,0
2017-11-21T00:56:26.629Z,0
2017-11-21T00:57:36.918Z,0
2017-11-21T00:58:47.176Z,0
2017-11-21T00:59:57.216Z,0
2017-11-21T01:01:07.729Z,0
2017-11-21T01:02:17.654Z,0
2017-11-21T01:03:28.147Z,0
2017-11-21T01:04:37.780Z,0
2017-11-21T01:05:47.827Z,0
2017-11-21T01:06:57.600Z,0
2017-11-21T01:08:07.738Z,0
2017-11-21T01:09:18.051Z,0
2017-11-21T01:10:28.374Z,0
2017-11-21T01:11:38.647Z,0
2017-11-21T01:12:48.907Z,0
2017-11-21T01:13:59.171Z,0
2017-11-21T01:15:09.222Z,0
2017-11-21T01:16:18.953Z,0
2017-11-21T01:17:29.213Z,0
2017-11-21T01:18:39.483Z,0
2017-11-21T01:19:49.764Z,0
2017-11-21T01:21:00.021Z,0
2017-11-21T01:22:10.303Z,0
2017-11-21T01:23:20.625Z,0
2017-11-21T01:24:30.629Z,0
2017-11-21T01:25:40.911Z,0
2017-11-21T01:26:51.141Z,0
2017-11-21T01:28:01.392Z,0
2017-11-21T01:29:11.668Z,0
2017-11-21T01:30:21.913Z,0
2017-11-21T01:31:32.182Z,0
2017-11-21T01:32:42.711Z,0
2017-11-21T01:33:52.709Z,0
2017-11-21T01:35:02.667Z,0
2017-11-21T01:36:12.908Z,0
2017-11-21T01:37:22.891Z,0
2017-11-21T01:38:33.169Z,0
2017-11-21T01:39:43.198Z,0
2017-11-21T01:40:53.551Z,0
2017-11-21T01:42:03.826Z,0
2017-11-21T01:43:14.079Z,0
2017-11-21T01:44:24.360Z,0
2017-11-21T01:45:34.625Z,0
2017-11-21T01:46:44.874Z,0
2017-11-21T01:47:55.145Z,0
2017-11-21T01:49:05.412Z,0
2017-11-21T01:50:15.694Z,0
2017-11-21T01:51:25.967Z,0
2017-11-21T01:52:36.223Z,0
2017-11-21T01:53:46.332Z,0
2017-11-21T01:54:56.638Z,0
2017-11-21T01:56:06.962Z,0
2017-11-21T01:57:17.244Z,0
2017-11-21T01:58:27.505Z,0
2017-11-21T01:59:37.836Z,0
2017-11-21T02:00:48.088Z,0
2017-11-21T02:01:58.340Z,0
2017-11-21T02:03:08.610Z,0
2017-11-21T02:04:18.530Z,0
2017-11-21T02:05:28.889Z,0
2017-11-21T02:06:38.968Z,0
2017-11-21T02:07:49.351Z,0
2017-11-21T02:08:59.345Z,0
2017-11-21T02:10:09.222Z,0
2017-11-21T02:11:19.508Z,0
2017-11-21T02:12:29.897Z,0
2017-11-21T02:13:39.874Z,0
2017-11-21T02:14:50.162Z,0
2017-11-21T02:16:00.501Z,0
2017-11-21T02:17:10.786Z,0
2017-11-21T02:18:21.052Z,0
2017-11-21T02:19:31.342Z,0
2017-11-21T02:20:41.240Z,0
2017-11-21T02:21:51.170Z,0
2017-11-21T02:23:01.441Z,0
2017-11-21T02:24:11.705Z,0
2017-11-21T02:25:22.195Z,0
2017-11-21T02:26:32.434Z,0
2017-11-21T02:27:42.699Z,0
2017-11-21T02:28:52.958Z,0
2017-11-21T02:30:03.742Z,0
2017-11-21T02:31:14.096Z,0
2017-11-21T02:32:24.106Z,0
2017-11-21T02:33:34.276Z,0
2017-11-21T02:34:44.537Z,0
2017-11-21T02:35:54.518Z,0
2017-11-21T02:37:04.957Z,0
2017-11-21T02:38:15.213Z,0
2017-11-21T02:39:25.221Z,0
2017-11-21T02:40:35.476Z,0
2017-11-21T02:41:45.793Z,0
2017-11-21T02:42:55.764Z,0
2017-11-21T02:44:06.147Z,0
2017-11-21T02:45:16.908Z,0
2017-11-21T02:46:27.229Z,0
2017-11-21T02:47:37.498Z,0
2017-11-21T02:48:47.556Z,0
2017-11-21T02:49:57.854Z,0
2017-11-21T02:51:08.147Z,0
2017-11-21T02:52:18.029Z,0
2017-11-21T02:53:28.383Z,0
2017-11-21T02:54:38.659Z,0
2017-11-21T02:55:48.958Z,0
2017-11-21T02:56:59.229Z,0
2017-11-21T02:58:09.286Z,0
2017-11-21T02:59:19.262Z,0
2017-11-21T03:00:29.519Z,0
2017-11-21T03:01:39.244Z,0
2017-11-21T03:02:49.488Z,0
2017-11-21T03:03:59.785Z,0
2017-11-21T03:05:09.885Z,0
2017-11-21T03:06:20.173Z,0
2017-11-21T03:07:30.447Z,0
2017-11-21T03:08:40.825Z,0
2017-11-21T03:09:50.713Z,0
2017-11-21T03:11:00.883Z,0
2017-11-21T03:12:11.138Z,0
2017-11-21T03:13:21.385Z,0
2017-11-21T03:14:31.353Z,0
2017-11-21T03:15:41.651Z,0
2017-11-21T03:16:51.868Z,0
2017-11-21T03:18:02.131Z,0
2017-11-21T03:19:12.051Z,0
2017-11-21T03:20:22.338Z,0
2017-11-21T03:21:32.336Z,0
2017-11-21T03:22:42.600Z,0
2017-11-21T03:23:52.860Z,0
2017-11-21T03:25:03.176Z,0
2017-11-21T03:26:13.154Z,0
2017-11-21T03:27:23.442Z,0
2017-11-21T03:28:33.715Z,0
2017-11-21T03:29:44.034Z,0
2017-11-21T03:30:53.559Z,0
2017-11-21T03:32:03.809Z,0
2017-11-21T03:33:13.792Z,0
2017-11-21T03:34:24.100Z,0
2017-11-21T03:35:34.383Z,0
2017-11-21T03:36:44.162Z,0
2017-11-21T03:37:54.496Z,0
2017-11-21T03:39:04.464Z,0
2017-11-21T03:40:15.053Z,0
2017-11-21T03:41:25.335Z,0
2017-11-21T03:42:35.616Z,0
2017-11-21T03:43:45.870Z,0
2017-11-21T03:44:55.577Z,0
2017-11-21T03:46:05.980Z,0
2017-11-21T03:47:16.330Z,0
2017-11-21T03:48:26.579Z,0
2017-11-21T03:49:36.876Z,0
2017-11-21T03:50:47.144Z,0
2017-11-21T03:51:57.788Z,0
2017-11-21T03:53:08.082Z,0
2017-11-21T03:54:18.125Z,0
2017-11-21T03:55:28.393Z,0
2017-11-21T03:56:38.672Z,0
2017-11-21T03:57:48.952Z,0
2017-11-21T03:58:59.366Z,0
2017-11-21T04:00:09.348Z,0
2017-11-21T04:01:19.585Z,0
2017-11-21T04:02:29.835Z,0
2017-11-21T04:03:39.721Z,0
2017-11-21T04:04:50.065Z,0
2017-11-21T04:06:00.335Z,0
2017-11-21T04:07:10.648Z,0
2017-11-21T04:08:20.731Z,0
2017-11-21T04:09:30.934Z,0
2017-11-21T04:10:41.183Z,0
2017-11-21T04:11:51.439Z,0
2017-11-21T04:13:01.729Z,0
2017-11-21T04:14:11.651Z,0
2017-11-21T04:15:21.623Z,0
2017-11-21T04:16:31.907Z,0
2017-11-21T04:17:41.905Z,0
2017-11-21T04:18:52.263Z,0
2017-11-21T04:20:02.754Z,0
2017-11-21T04:21:12.997Z,0
2017-11-21T04:22:22.996Z,0
2017-11-21T04:23:33.250Z,0
2017-11-21T04:24:43.536Z,0
2017-11-21T04:25:54.042Z,0
2017-11-21T04:27:03.928Z,0
2017-11-21T04:28:14.173Z,0
2017-11-21T04:29:24.444Z,0
2017-11-21T04:30:34.728Z,0
2017-11-21T04:31:45.027Z,0
2017-11-21T04:32:55.324Z,0
2017-11-21T04:34:05.204Z,0
2017-11-21T04:35:14.975Z,0
2017-11-21T04:36:25.270Z,0
2017-11-21T04:37:35.667Z,0
2017-11-21T04:38:45.946Z,0
2017-11-21T04:39:56.297Z,0
2017-11-21T04:41:06.547Z,0
2017-11-21T04:42:15.912Z,0
2017-11-21T04:43:26.231Z,0
2017-11-21T04:44:36.004Z,0
2017-11-21T04:45:45.955Z,0
2017-11-21T04:46:55.961Z,0
2017-11-21T04:48:06.255Z,0
2017-11-21T04:49:16.254Z,0
2017-11-21T04:50:26.524Z,0
2017-11-21T04:51:36.589Z,0
2017-11-21T04:52:46.870Z,0
2017-11-21T04:53:56.866Z,0
2017-11-21T04:55:06.801Z,0
2017-11-21T04:56:17.058Z,0
2017-11-21T04:57:27.081Z,0
2017-11-21T04:58:37.059Z,0
2017-11-21T04:59:46.831Z,0
2017-11-21T05:00:57.094Z,0
2017-11-21T05:02:07.077Z,0
2017-11-21T05:03:16.991Z,0
2017-11-21T05:04:27.420Z,0
2017-11-21T05:05:37.400Z,0
2017-11-21T05:06:47.683Z,0
2017-11-21T05:07:58.010Z,0
2017-11-21T05:09:08.260Z,0
2017-11-21T05:10:18.204Z,0
2017-11-21T05:11:28.459Z,0
2017-11-21T05:12:38.306Z,0
2017-11-21T05:13:48.565Z,0
2017-11-21T05:14:58.825Z,0
2017-11-21T05:16:09.256Z,0
2017-11-21T05:17:19.240Z,0
2017-11-21T05:18:29.498Z,0
2017-11-21T05:19:39.872Z,0
2017-11-21T05:20:49.950Z,0
2017-11-21T05:22:00.234Z,0
2017-11-21T05:23:10.536Z,0
2017-11-21T05:24:20.183Z,0
2017-11-21T05:25:30.096Z,0
2017-11-21T05:26:40.359Z,0
2017-11-21T05:27:50.383Z,0
2017-11-21T05:29:00.694Z,0
2017-11-21T05:30:10.994Z,0
2017-11-21T05:31:21.254Z,0
2017-11-21T05:32:31.519Z,0
2017-11-21T05:33:41.534Z,0
2017-11-21T05:34:51.769Z,0
2017-11-21T05:36:02.080Z,0
2017-11-21T05:37:12.348Z,0
2017-11-21T05:38:22.606Z,0
2017-11-21T05:39:32.857Z,0
2017-11-21T05:40:42.879Z,0
2017-11-21T05:41:53.180Z,0
2017-11-21T05:43:03.188Z,0
2017-11-21T05:44:13.497Z,0
2017-11-21T05:45:23.516Z,0
2017-11-21T05:46:33.828Z,0
2017-11-21T05:47:44.120Z,0
2017-11-21T05:48:54.481Z,0
2017-11-21T05:50:04.779Z,0
2017-11-21T05:51:15.033Z,0
2017-11-21T05:52:25.354Z,0
2017-11-21T05:53:35.622Z,0
2017-11-21T05:54:45.952Z,0
2017-11-21T05:55:55.993Z,0
2017-11-21T05:57:05.988Z,0
2017-11-21T05:58:16.262Z,0
2017-11-21T05:59:26.602Z,0
2017-11-21T06:00:36.875Z,0
2017-11-21T06:01:46.947Z,0
2017-11-21T06:02:57.216Z,0
2017-11-21T06:04:07.230Z,0
2017-11-21T06:05:17.311Z,0
2017-11-21T06:06:27.631Z,0
2017-11-21T06:07:37.990Z,0
2017-11-21T06:08:48.317Z,0
2017-11-21T06:09:58.594Z,0
2017-11-21T06:11:08.940Z,0
2017-11-21T06:12:19.214Z,0
2017-11-21T06:13:29.235Z,0
2017-11-21T06:14:39.554Z,0
2017-11-21T06:15:49.596Z,0
2017-11-21T06:16:59.892Z,0
2017-11-21T06:18:10.193Z,0
2017-11-21T06:19:20.500Z,0
2017-11-21T06:20:30.512Z,0
2017-11-21T06:21:40.550Z,0
2017-11-21T06:22:50.167Z,0
2017-11-21T06:24:00.458Z,0
2017-11-21T06:25:10.500Z,0
2017-11-21T06:26:20.590Z,0
2017-11-21T06:27:30.887Z,0
2017-11-21T06:28:40.995Z,0
2017-11-21T06:29:50.986Z,0
2017-11-21T06:31:01.387Z,0
2017-11-21T06:32:11.383Z,0
2017-11-21T06:33:21.145Z,0
2017-11-21T06:34:31.197Z,0
2017-11-21T06:35:41.674Z,0
2017-11-21T06:36:51.962Z,0
2017-11-21T06:38:02.260Z,0
2017-11-21T06:39:12.571Z,0
2017-11-21T06:40:22.865Z,0
2017-11-21T06:41:33.123Z,0
2017-11-21T06:42:42.756Z,0
2017-11-21T06:43:52.746Z,0
2017-11-21T06:45:02.888Z,0
2017-11-21T06:46:12.956Z,0
2017-11-21T06:47:23.219Z,0
2017-11-21T06:48:33.480Z,0
2017-11-21T06:49:43.422Z,0
2017-11-21T06:50:53.310Z,0
2017-11-21T06:52:03.308Z,5
2017-11-21T06:53:13.682Z,5
2017-11-21T06:54:23.998Z,5
2017-11-21T06:55:34.017Z,5
2017-11-21T06:56:43.969Z,5
2017-11-21T06:57:54.263Z,5
2017-11-21T06:59:04.553Z,5
2017-11-21T07:00:14.577Z,10
2017-11-21T07:01:24.459Z,10
2017-11-21T07:02:34.722Z,10
2017-11-21T07:03:45.225Z,15
2017-11-21T07:04:55.523Z,15
2017-11-21T07:06:05.770Z,15
2017-11-21T07:07:15.677Z,15
2017-11-21T07:08:25.809Z,15
2017-11-21T07:09:36.071Z,15
2017-11-21T07:10:46.371Z,15
2017-11-21T07:11:56.656Z,15
2017-11-21T07:13:07.188Z,15
2017-11-21T07:14:17.439Z,15
2017-11-21T07:15:27.957Z,20
2017-11-21T07:16:38.208Z,15
2017-11-21T07:17:48.524Z,15
2017-11-21T07:18:58.799Z,15
2017-11-21T07:20:08.809Z,15
2017-11-21T07:21:19.151Z,15
2017-11-21T07:22:29.391Z,20
2017-11-21T07:23:39.682Z,20
2017-11-21T07:24:49.666Z,20
2017-11-21T07:26:00.047Z,20
2017-11-21T07:27:10.302Z,20
2017-11-21T07:28:20.322Z,15
2017-11-21T07:29:30.732Z,15
2017-11-21T07:30:40.974Z,15
2017-11-21T07:31:50.889Z,15
2017-11-21T07:33:01.046Z,20
2017-11-21T07:34:11.101Z,20
2017-11-21T07:35:21.248Z,25
2017-11-21T07:36:31.543Z,25
2017-11-21T07:37:41.798Z,25
2017-11-21T07:38:52.104Z,30
2017-11-21T07:40:02.359Z,30
2017-11-21T07:41:12.612Z,40
2017-11-21T07:42:22.883Z,40
2017-11-21T07:43:32.576Z,40
2017-11-21T07:44:42.629Z,45
2017-11-21T07:45:52.680Z,45
2017-11-21T07:47:02.574Z,45
2017-11-21T07:48:12.558Z,40
2017-11-21T07:49:22.835Z,35
2017-11-21T07:50:32.827Z,30
2017-11-21T07:51:42.957Z,30
2017-11-21T07:52:53.204Z,30
2017-11-21T07:54:03.468Z,35
2017-11-21T07:55:13.488Z,35
2017-11-21T07:56:23.373Z,35
2017-11-21T07:57:33.319Z,40
2017-11-21T07:58:43.665Z,40
2017-11-21T07:59:54.166Z,40
2017-11-21T08:01:04.433Z,40
2017-11-21T08:02:14.706Z,40
2017-11-21T08:03:25.121Z,40
2017-11-21T08:04:35.192Z,45
2017-11-21T08:05:45.572Z,50
2017-11-21T08:06:55.585Z,60
2017-11-21T08:08:05.306Z,60
2017-11-21T08:09:15.565Z,50
2017-11-21T08:10:25.868Z,40
2017-11-21T08:11:36.172Z,40
2017-11-21T08:12:46.481Z,35
2017-11-21T08:13:56.166Z,35
2017-11-21T08:15:06.413Z,30
2017-11-21T08:16:16.721Z,30
2017-11-21T08:17:27.008Z,30
2017-11-21T08:18:37.263Z,30
2017-11-21T08:19:47.287Z,30
2017-11-21T08:20:57.583Z,30
2017-11-21T08:22:07.718Z,30
2017-11-21T08:23:17.763Z,25
2017-11-21T08:24:27.858Z,25
2017-11-21T08:25:38.360Z,25
2017-11-21T08:26:48.706Z,30
2017-11-21T08:27:58.807Z,30
2017-11-21T08:29:09.068Z,30
2017-11-21T08:30:19.264Z,30
2017-11-21T08:31:29.280Z,30
2017-11-21T08:32:39.666Z,35
2017-11-21T08:33:49.927Z,40
2017-11-21T08:34:59.916Z,45
2017-11-21T08:36:10.364Z,50
2017-11-21T08:37:20.664Z,50
2017-11-21T08:38:30.939Z,50
2017-11-21T08:39:41.254Z,45
2017-11-21T08:40:51.611Z,45
2017-11-21T08:42:01.975Z,50
2017-11-21T08:43:12.261Z,55
2017-11-21T08:44:22.317Z,60
2017-11-21T08:45:32.628Z,60
2017-11-21T08:46:42.915Z,65
2017-11-21T08:47:53.270Z,70
2017-11-21T08:49:03.321Z,70
2017-11-21T08:50:12.802Z,70
2017-11-21T08:51:23.214Z,70
2017-11-21T08:52:33.524Z,70
2017-11-21T08:53:44.025Z,70
2017-11-21T08:54:54.350Z,65
2017-11-21T08:56:04.099Z,60
2017-11-21T08:57:14.371Z,50
2017-11-21T08:58:24.016Z,50
2017-11-21T08:59:34.314Z,45
2017-11-21T09:00:44.521Z,45
2017-11-21T09:01:54.773Z,50
2017-11-21T09:03:04.839Z,55
2017-11-21T09:04:14.865Z,60
2017-11-21T09:05:25.128Z,60
2017-11-21T09:06:35.401Z,65
2017-11-21T09:07:45.726Z,70
2017-11-21T09:08:56.073Z,70
2017-11-21T09:10:06.355Z,75
2017-11-21T09:11:16.709Z,65
2017-11-21T09:12:27.091Z,65
2017-11-21T09:13:36.729Z,65
2017-11-21T09:14:47.045Z,70
2017-11-21T09:15:57.313Z,70
2017-11-21T09:17:07.619Z,80
2017-11-21T09:18:17.904Z,75
2017-11-21T09:19:28.163Z,80
2017-11-21T09:20:38.423Z,85
2017-11-21T09:21:48.586Z,85
2017-11-21T09:22:58.866Z,80
2017-11-21T09:24:41.066Z,70
2017-11-21T09:25:51.352Z,65
2017-11-21T09:27:01.358Z,65
2017-11-21T09:28:11.670Z,65
2017-11-21T09:29:21.981Z,65
2017-11-21T09:30:32.331Z,70
2017-11-21T09:31:42.626Z,70
2017-11-21T09:32:52.903Z,65
2017-11-21T09:34:02.635Z,70
2017-11-21T09:35:12.916Z,65
2017-11-21T09:36:23.262Z,65
2017-11-21T09:37:33.228Z,65
2017-11-21T09:38:43.491Z,65
2017-11-21T09:39:53.809Z,65
2017-11-21T09:41:03.792Z,65
2017-11-21T09:42:13.807Z,65
2017-11-21T09:43:24.111Z,70
2017-11-21T09:44:34.457Z,80
2017-11-21T09:45:44.758Z,80
2017-11-21T09:46:54.869Z,80
2017-11-21T09:48:04.785Z,85
2017-11-21T09:49:14.803Z,95
2017-11-21T09:50:25.075Z,115
2017-11-21T09:51:35.000Z,125
2017-11-21T09:52:45.043Z,115
2017-11-21T09:53:54.963Z,115
2017-11-21T09:55:05.496Z,120
2017-11-21T09:56:15.767Z,135
2017-11-21T09:57:25.538Z,155
2017-11-21T09:58:35.491Z,160
2017-11-21T09:59:45.808Z,140
2017-11-21T10:00:55.839Z,155
2017-11-21T10:02:05.983Z,150
2017-11-21T10:03:15.979Z,135
2017-11-21T10:04:25.951Z,130
2017-11-21T10:05:36.249Z,140
2017-11-21T10:06:46.510Z,140
2017-11-21T10:07:56.929Z,150
2017-11-21T10:09:06.700Z,155
2017-11-21T10:10:16.999Z,160
2017-11-21T10:11:27.625Z,170
2017-11-21T10:12:37.930Z,180
2017-11-21T10:13:48.057Z,190
2017-11-21T10:14:58.063Z,185
2017-11-21T10:16:08.011Z,170
2017-11-21T10:17:18.299Z,160
2017-11-21T10:18:28.341Z,140
2017-11-21T10:19:38.375Z,135
2017-11-21T10:20:48.377Z,125
2017-11-21T10:21:58.650Z,135
2017-11-21T10:23:08.738Z,135
2017-11-21T10:24:18.482Z,140
2017-11-21T10:25:28.812Z,150
2017-11-21T10:26:39.060Z,145
2017-11-21T10:27:49.355Z,140
2017-11-21T10:28:59.678Z,140
2017-11-21T10:30:09.570Z,150
2017-11-21T10:31:20.037Z,130
2017-11-21T10:32:30.348Z,140
2017-11-21T10:33:40.627Z,145
2017-11-21T10:34:51.077Z,145
2017-11-21T10:36:01.079Z,155
2017-11-21T10:37:11.385Z,160
2017-11-21T10:38:21.715Z,170
2017-11-21T10:39:32.015Z,175
2017-11-21T10:40:42.314Z,150
2017-11-21T10:41:52.584Z,125
2017-11-21T10:43:02.945Z,130
2017-11-21T10:44:12.573Z,120
2017-11-21T10:45:22.856Z,105
2017-11-21T10:46:33.424Z,85
2017-11-21T10:47:43.698Z,70
2017-11-21T10:48:53.712Z,70
2017-11-21T10:50:03.982Z,65
2017-11-21T10:51:14.087Z,65
2017-11-21T10:52:24.345Z,65
2017-11-21T10:53:34.646Z,85
2017-11-21T10:54:44.635Z,85
2017-11-21T10:55:54.413Z,90
2017-11-21T10:57:04.729Z,100
2017-11-21T10:58:15.210Z,110
2017-11-21T10:59:25.520Z,105
2017-11-21T11:00:36.039Z,105
2017-11-21T11:01:46.414Z,120
2017-11-21T11:02:56.715Z,130
2017-11-21T11:04:07.170Z,130
2017-11-21T11:05:17.184Z,145
2017-11-21T11:06:27.660Z,130
2017-11-21T11:07:37.932Z,125
2017-11-21T11:08:48.217Z,125
2017-11-21T11:09:58.617Z,145
2017-11-21T11:11:08.605Z,145
2017-11-21T11:12:18.896Z,130
2017-11-21T11:13:28.908Z,120
2017-11-21T11:14:39.235Z,100
2017-11-21T11:15:49.517Z,105
2017-11-21T11:16:59.557Z,130
2017-11-21T11:18:09.656Z,145
2017-11-21T11:19:20.170Z,135
2017-11-21T11:20:30.191Z,150
2017-11-21T11:21:40.460Z,130
2017-11-21T11:22:50.827Z,115
2017-11-21T11:24:01.119Z,130
2017-11-21T11:25:11.394Z,135
2017-11-21T11:26:21.746Z,115
2017-11-21T11:27:31.765Z,120
2017-11-21T11:28:42.053Z,140
2017-11-21T11:29:52.471Z,155
2017-11-21T11:31:02.764Z,155
2017-11-21T11:32:13.035Z,120
2017-11-21T11:33:23.380Z,140
2017-11-21T11:34:33.759Z,180
2017-11-21T11:35:43.811Z,175
2017-11-21T11:36:53.430Z,135
2017-11-21T11:38:03.760Z,125
2017-11-21T11:39:14.041Z,135
2017-11-21T11:40:24.419Z,125
2017-11-21T11:41:34.432Z,130
2017-11-21T11:42:44.708Z,120
2017-11-21T11:43:55.038Z,100
2017-11-21T11:45:05.407Z,90
2017-11-21T11:46:15.327Z,90
2017-11-21T11:47:25.892Z,90
2017-11-21T11:48:35.935Z,105
2017-11-21T11:49:45.899Z,115
2017-11-21T11:50:56.052Z,110
2017-11-21T11:52:06.598Z,110
2017-11-21T11:53:16.613Z,110
2017-11-21T11:54:26.949Z,110
2017-11-21T11:55:37.346Z,115
2017-11-21T11:56:47.687Z,125
2017-11-21T11:57:57.615Z,125
2017-11-21T11:59:07.749Z,145
2017-11-21T12:00:18.017Z,175
2017-11-21T12:01:28.332Z,150
2017-11-21T12:02:38.612Z,155
2017-11-21T12:03:48.891Z,165
2017-11-21T12:04:59.271Z,165
2017-11-21T12:06:09.473Z,160
2017-11-21T12:07:19.784Z,145
2017-11-21T12:08:29.794Z,130
2017-11-21T12:09:40.081Z,130
2017-11-21T12:10:50.456Z,140
2017-11-21T12:12:00.751Z,135
2017-11-21T12:13:10.805Z,140
2017-11-21T12:14:35.831Z,155
2017-11-21T12:15:46.161Z,145
2017-11-21T12:16:56.469Z,140
2017-11-21T12:18:06.542Z,150
2017-11-21T12:19:17.014Z,155
2017-11-21T12:20:27.084Z,145
2017-11-21T12:21:37.361Z,130
2017-11-21T12:22:47.415Z,120
2017-11-21T12:23:57.756Z,115
2017-11-21T12:25:08.082Z,120
2017-11-21T12:26:18.119Z,120
2017-11-21T12:27:28.409Z,115
2017-11-21T12:28:38.691Z,105
2017-11-21T12:29:48.980Z,100
2017-11-21T12:30:59.368Z,95
2017-11-21T12:32:09.820Z,90
2017-11-21T12:33:20.105Z,95
2017-11-21T12:34:30.119Z,100
2017-11-21T12:35:40.469Z,100
2017-11-21T12:36:50.736Z,105
2017-11-21T12:38:01.082Z,110
2017-11-21T12:39:11.435Z,110
2017-11-21T12:40:21.733Z,105
2017-11-21T12:41:32.181Z,100
2017-11-21T12:42:42.508Z,95
2017-11-21T12:43:52.514Z,95
2017-11-21T12:45:02.648Z,95
2017-11-21T12:46:12.988Z,90
2017-11-21T12:47:23.282Z,90
2017-11-21T12:48:33.624Z,95
2017-11-21T12:49:43.981Z,85
2017-11-21T12:50:54.464Z,80
2017-11-21T12:52:04.737Z,75
2017-11-21T12:53:15.022Z,75
2017-11-21T12:54:25.290Z,75
2017-11-21T12:55:35.373Z,70
2017-11-21T12:56:45.686Z,70
2017-11-21T12:57:55.665Z,70
2017-11-21T12:59:05.599Z,65
2017-11-21T13:00:15.727Z,60
2017-11-21T13:01:25.889Z,55
2017-11-21T13:02:35.899Z,55
2017-11-21T13:03:46.215Z,60
2017-11-21T13:04:56.541Z,65
2017-11-21T13:06:06.847Z,65
2017-11-21T13:07:17.257Z,65
2017-11-21T13:08:27.548Z,65
2017-11-21T13:09:37.588Z,60
2017-11-21T13:10:47.607Z,60
2017-11-21T13:11:57.917Z,60
2017-11-21T13:13:08.105Z,70
2017-11-21T13:14:18.425Z,75
2017-11-21T13:15:28.446Z,75
2017-11-21T13:16:38.822Z,70
2017-11-21T13:17:48.819Z,65
2017-11-21T13:18:59.393Z,55
2017-11-21T13:20:09.411Z,50
2017-11-21T13:21:19.707Z,50
2017-11-21T13:22:30.018Z,55
2017-11-21T13:23:40.086Z,55
2017-11-21T13:24:50.410Z,60
2017-11-21T13:26:00.696Z,60
2017-11-21T13:27:11.014Z,60
2017-11-21T13:28:21.301Z,65
2017-11-21T13:29:31.812Z,65
2017-11-21T13:30:42.090Z,70
2017-11-21T13:31:52.349Z,65
2017-11-21T13:33:02.649Z,60
2017-11-21T13:34:12.969Z,55
2017-11-21T13:35:23.346Z,55
2017-11-21T13:36:33.383Z,55
2017-11-21T13:37:43.425Z,55
2017-11-21T13:38:53.993Z,55
2017-11-21T13:40:04.293Z,55
2017-11-21T13:41:14.390Z,50
2017-11-21T13:42:24.681Z,50
2017-11-21T13:43:34.968Z,60
2017-11-21T13:44:45.310Z,65
2017-11-21T13:45:55.589Z,65
2017-11-21T13:47:06.445Z,65
2017-11-21T13:48:16.743Z,75
2017-11-21T13:49:26.862Z,75
2017-11-21T13:50:36.906Z,75
2017-11-21T13:51:47.008Z,75
2017-11-21T13:52:57.534Z,60
2017-11-21T13:54:07.892Z,55
2017-11-21T13:55:18.231Z,50
2017-11-21T13:56:28.757Z,50
2017-11-21T13:57:38.671Z,55
2017-11-21T13:58:49.004Z,55
2017-11-21T13:59:58.764Z,50
2017-11-21T14:01:09.087Z,40
2017-11-21T14:02:19.432Z,35
2017-11-21T14:03:29.791Z,40
2017-11-21T14:04:39.873Z,40
2017-11-21T14:05:50.166Z,35
2017-11-21T14:07:00.513Z,35
2017-11-21T14:08:10.812Z,35
2017-11-21T14:09:20.496Z,30
2017-11-21T14:10:30.819Z,30
2017-11-21T14:11:41.105Z,30
2017-11-21T14:12:51.379Z,25
2017-11-21T14:14:01.930Z,25
2017-11-21T14:15:12.323Z,25
2017-11-21T14:16:22.593Z,20
2017-11-21T14:17:32.891Z,20
2017-11-21T14:18:43.112Z,20
2017-11-21T14:19:52.827Z,15
2017-11-21T14:21:03.234Z,15
2017-11-21T14:22:13.342Z,15
2017-11-21T14:23:23.378Z,15
2017-11-21T14:24:33.037Z,15
2017-11-21T14:25:43.980Z,15
2017-11-21T14:26:54.044Z,15
2017-11-21T14:28:03.955Z,10
2017-11-21T14:29:14.291Z,10
2017-11-21T14:30:24.736Z,10
2017-11-21T14:31:34.745Z,10
2017-11-21T14:32:45.186Z,10
2017-11-21T14:33:55.503Z,10
2017-11-21T14:35:05.806Z,15
2017-11-21T14:36:16.334Z,10
2017-11-21T14:37:26.496Z,10
2017-11-21T14:38:36.485Z,10
2017-11-21T14:39:46.699Z,10
2017-11-21T14:40:56.989Z,10
2017-11-21T14:42:07.405Z,10
2017-11-21T14:43:17.756Z,10
2017-11-21T14:44:28.102Z,15
2017-11-21T14:45:38.126Z,15
2017-11-21T14:46:48.295Z,10
2017-11-21T14:47:58.623Z,10
2017-11-21T14:49:08.954Z,10
2017-11-21T14:50:19.484Z,10
2017-11-21T14:51:29.796Z,10
2017-11-21T14:52:39.869Z,10
2017-11-21T14:53:49.783Z,10
2017-11-21T14:54:59.829Z,10
2017-11-21T14:56:09.577Z,5
2017-11-21T14:57:19.950Z,5
2017-11-21T14:58:30.249Z,5
2017-11-21T14:59:40.553Z,5
2017-11-21T15:00:50.894Z,5
2017-11-21T15:02:01.247Z,5
2017-11-21T15:03:10.985Z,5
2017-11-21T15:04:21.040Z,0
2017-11-21T15:05:31.415Z,0
2017-11-21T15:06:41.696Z,0
2017-11-21T15:07:51.996Z,0
2017-11-21T15:09:02.073Z,0
2017-11-21T15:10:12.434Z,0
2017-11-21T15:11:22.452Z,0
2017-11-21T15:12:32.736Z,0
2017-11-21T15:13:43.026Z,0
2017-11-21T15:14:53.299Z,0
2017-11-21T15:16:03.930Z,0
2017-11-21T15:17:13.684Z,0
2017-11-21T15:18:23.995Z,0
2017-11-21T15:19:33.736Z,0
2017-11-21T15:20:44.022Z,0
2017-11-21T15:21:54.332Z,0
2017-11-21T15:23:04.399Z,0
2017-11-21T15:24:14.694Z,0
2017-11-21T15:25:25.395Z,0
2017-11-21T15:26:35.414Z,0
2017-11-21T15:27:45.636Z,0
2017-11-21T15:28:55.949Z,0
2017-11-21T15:30:05.973Z,0
2017-11-21T15:31:16.269Z,0
2017-11-21T15:32:26.553Z,0
2017-11-21T15:33:36.617Z,0
2017-11-21T15:34:46.959Z,0
2017-11-21T15:35:57.131Z,0
2017-11-21T15:37:07.420Z,0
2017-11-21T15:38:17.768Z,0
2017-11-21T15:39:27.792Z,0
2017-11-21T15:40:37.798Z,0
2017-11-21T15:41:48.129Z,0
2017-11-21T15:42:58.087Z,0
2017-11-21T15:44:08.391Z,0
2017-11-21T15:45:18.354Z,0
2017-11-21T15:46:28.379Z,0
2017-11-21T15:47:40.056Z,0
2017-11-21T15:48:50.364Z,0
2017-11-21T15:50:00.997Z,0
2017-11-21T15:51:11.472Z,0
2017-11-21T15:52:21.518Z,0
2017-11-21T15:53:31.299Z,0
2017-11-21T15:54:41.731Z,0
2017-11-21T15:55:52.170Z,0
2017-11-21T15:57:02.013Z,0
2017-11-21T15:58:12.308Z,0
2017-11-21T15:59:22.663Z,0
2017-11-21T16:00:32.325Z,0
2017-11-21T16:01:42.652Z,0
2017-11-21T16:02:53.037Z,0
2017-11-21T16:04:03.597Z,0
2017-11-21T16:05:14.228Z,0
2017-11-21T16:06:24.535Z,0
2017-11-21T16:07:34.814Z,0
2017-11-21T16:08:45.035Z,0
2017-11-21T16:09:55.472Z,0
2017-11-21T16:11:05.806Z,0
2017-11-21T16:12:15.872Z,0
2017-11-21T16:13:26.297Z,0
2017-11-21T16:14:36.006Z,0
2017-11-21T16:15:46.399Z,0
2017-11-21T16:16:56.040Z,0
2017-11-21T16:18:06.331Z,0
2017-11-21T16:19:16.107Z,0
2017-11-21T16:20:26.136Z,0
2017-11-21T16:21:36.432Z,0
2017-11-21T16:22:46.513Z,0
2017-11-21T16:23:56.848Z,0
2017-11-21T16:25:07.259Z,0
2017-11-21T16:26:17.574Z,0
2017-11-21T16:27:27.666Z,0
2017-11-21T16:28:38.040Z,0
2017-11-21T16:29:48.385Z,0
2017-11-21T16:30:59.197Z,0
2017-11-21T16:32:09.001Z,0
2017-11-21T16:33:19.039Z,0
2017-11-21T16:34:28.907Z,0
2017-11-21T16:35:38.935Z,0
2017-11-21T16:36:49.312Z,0
2017-11-21T16:37:59.662Z,0
2017-11-21T16:39:10.012Z,0
2017-11-21T16:40:20.347Z,0
2017-11-21T16:41:30.769Z,0
2017-11-21T16:42:40.886Z,0
2017-11-21T16:43:50.901Z,0
2017-11-21T16:45:01.300Z,0
2017-11-21T16:46:11.627Z,0
2017-11-21T16:47:21.665Z,0
2017-11-21T16:48:31.713Z,0
2017-11-21T16:49:41.377Z,0
2017-11-21T16:50:51.737Z,0
2017-11-21T16:52:02.129Z,0
2017-11-21T16:53:11.936Z,0
2017-11-21T16:54:22.269Z,0
2017-11-21T16:55:32.270Z,0
2017-11-21T16:56:42.656Z,0